sensor_id;sensor_type;location;lat;lon;timestamp;P1;durP1;ratioP1;P2;durP2;ratioP2
74383;SDS011;62824;52.994;-3.936;2024-02-16T00:01:34;28.25;;;2.90;;
74383;SDS011;62824;52.994;-3.936;2024-02-16T00:04:01;22.52;;;1.80;;
74383;SDS011;62824;52.994;-3.936;2024-02-16T00:06:27;37.42;;;3.45;;
74383;SDS011;62824;52.994;-3.936;2024-02-16T00:08:53;18.98;;;1.75;;
74383;SDS011;62824;52.994;-3.936;2024-02-16T00:11:18;2.63;;;0.57;;
74383;SDS011;62824;52.994;-3.936;2024-02-16T00:13:44;2.38;;;0.52;;
74383;SDS011;62824;52.994;-3.936;2024-02-16T00:16:10;1.67;;;0.60;;
74383;SDS011;62824;52.994;-3.936;2024-02-16T00:18:35;0.70;;;0.40;;
74383;SDS011;62824;52.994;-3.936;2024-02-16T00:21:02;0.10;;;0.10;;
74383;SDS011;62824;52.994;-3.936;2024-02-16T00:23:28;1.33;;;0.40;;
74383;SDS011;62824;52.994;-3.936;2024-02-16T00:25:54;0.40;;;0.28;;
74383;SDS011;62824;52.994;-3.936;2024-02-16T00:28:19;0.52;;;0.40;;
74383;SDS011;62824;52.994;-3.936;2024-02-16T00:30:45;0.80;;;0.55;;
74383;SDS011;62824;52.994;-3.936;2024-02-16T00:33:14;1.25;;;0.40;;
74383;SDS011;62824;52.994;-3.936;2024-02-16T00:35:42;0.30;;;0.20;;
74383;SDS011;62824;52.994;-3.936;2024-02-16T00:38:08;0.52;;;0.40;;
74383;SDS011;62824;52.994;-3.936;2024-02-16T00:40:34;1.55;;;0.30;;
74383;SDS011;62824;52.994;-3.936;2024-02-16T00:43:00;0.65;;;0.45;;
74383;SDS011;62824;52.994;-3.936;2024-02-16T00:45:25;0.28;;;0.28;;
74383;SDS011;62824;52.994;-3.936;2024-02-16T00:47:52;3.15;;;0.63;;
74383;SDS011;62824;52.994;-3.936;2024-02-16T00:50:20;5.65;;;0.90;;
74383;SDS011;62824;52.994;-3.936;2024-02-16T00:52:46;3.08;;;0.70;;
74383;SDS011;62824;52.994;-3.936;2024-02-16T00:55:12;0.70;;;0.40;;
74383;SDS011;62824;52.994;-3.936;2024-02-16T00:57:38;0.82;;;0.35;;
74383;SDS011;62824;52.994;-3.936;2024-02-16T01:00:04;1.85;;;0.30;;
74383;SDS011;62824;52.994;-3.936;2024-02-16T01:02:31;0.32;;;0.30;;
74383;SDS011;62824;52.994;-3.936;2024-02-16T01:04:58;0.22;;;0.20;;
74383;SDS011;62824;52.994;-3.936;2024-02-16T01:07:27;1.52;;;0.47;;
74383;SDS011;62824;52.994;-3.936;2024-02-16T01:09:53;1.05;;;0.30;;
74383;SDS011;62824;52.994;-3.936;2024-02-16T01:12:20;0.80;;;0.28;;
74383;SDS011;62824;52.994;-3.936;2024-02-16T01:14:45;0.30;;;0.30;;
74383;SDS011;62824;52.994;-3.936;2024-02-16T01:17:11;0.50;;;0.30;;
74383;SDS011;62824;52.994;-3.936;2024-02-16T01:19:37;2.53;;;0.40;;
74383;SDS011;62824;52.994;-3.936;2024-02-16T01:22:03;0.75;;;0.30;;
74383;SDS011;62824;52.994;-3.936;2024-02-16T01:24:28;0.45;;;0.40;;
74383;SDS011;62824;52.994;-3.936;2024-02-16T01:26:54;0.28;;;0.28;;
74383;SDS011;62824;52.994;-3.936;2024-02-16T01:29:20;0.75;;;0.30;;
74383;SDS011;62824;52.994;-3.936;2024-02-16T01:31:47;0.30;;;0.30;;
74383;SDS011;62824;52.994;-3.936;2024-02-16T01:34:13;5.38;;;0.70;;
74383;SDS011;62824;52.994;-3.936;2024-02-16T01:36:39;3.53;;;0.70;;
74383;SDS011;62824;52.994;-3.936;2024-02-16T01:39:05;2.30;;;0.60;;
74383;SDS011;62824;52.994;-3.936;2024-02-16T01:41:32;10.27;;;1.00;;
74383;SDS011;62824;52.994;-3.936;2024-02-16T01:43:58;13.45;;;1.52;;
74383;SDS011;62824;52.994;-3.936;2024-02-16T01:46:24;2.17;;;0.80;;
74383;SDS011;62824;52.994;-3.936;2024-02-16T01:48:51;8.80;;;0.68;;
74383;SDS011;62824;52.994;-3.936;2024-02-16T01:51:19;6.07;;;0.73;;
74383;SDS011;62824;52.994;-3.936;2024-02-16T01:53:45;3.33;;;0.60;;
74383;SDS011;62824;52.994;-3.936;2024-02-16T01:56:11;1.15;;;0.55;;
74383;SDS011;62824;52.994;-3.936;2024-02-16T01:58:37;2.13;;;0.60;;
74383;SDS011;62824;52.994;-3.936;2024-02-16T02:01:03;1.55;;;0.40;;
74383;SDS011;62824;52.994;-3.936;2024-02-16T02:03:29;4.22;;;1.40;;
74383;SDS011;62824;52.994;-3.936;2024-02-16T02:05:55;3.13;;;0.88;;
74383;SDS011;62824;52.994;-3.936;2024-02-16T02:08:21;2.08;;;0.70;;
74383;SDS011;62824;52.994;-3.936;2024-02-16T02:10:47;0.98;;;0.80;;
74383;SDS011;62824;52.994;-3.936;2024-02-16T02:13:14;1.35;;;0.45;;
74383;SDS011;62824;52.994;-3.936;2024-02-16T02:15:40;4.97;;;0.60;;
74383;SDS011;62824;52.994;-3.936;2024-02-16T02:18:06;0.40;;;0.20;;
74383;SDS011;62824;52.994;-3.936;2024-02-16T02:20:32;0.40;;;0.32;;
74383;SDS011;62824;52.994;-3.936;2024-02-16T02:22:59;1.27;;;0.40;;
74383;SDS011;62824;52.994;-3.936;2024-02-16T02:25:24;0.95;;;0.47;;
74383;SDS011;62824;52.994;-3.936;2024-02-16T02:27:53;1.27;;;0.50;;
74383;SDS011;62824;52.994;-3.936;2024-02-16T02:30:22;0.80;;;0.40;;
74383;SDS011;62824;52.994;-3.936;2024-02-16T02:32:52;0.15;;;0.15;;
74383;SDS011;62824;52.994;-3.936;2024-02-16T02:35:18;0.38;;;0.30;;
74383;SDS011;62824;52.994;-3.936;2024-02-16T02:37:44;0.55;;;0.25;;
74383;SDS011;62824;52.994;-3.936;2024-02-16T02:40:10;1.25;;;0.40;;
74383;SDS011;62824;52.994;-3.936;2024-02-16T02:42:37;1.42;;;0.40;;
74383;SDS011;62824;52.994;-3.936;2024-02-16T02:45:03;0.65;;;0.30;;
74383;SDS011;62824;52.994;-3.936;2024-02-16T02:47:30;1.63;;;0.25;;
74383;SDS011;62824;52.994;-3.936;2024-02-16T02:49:57;0.63;;;0.20;;
74383;SDS011;62824;52.994;-3.936;2024-02-16T02:52:23;0.82;;;0.30;;
74383;SDS011;62824;52.994;-3.936;2024-02-16T02:54:49;1.48;;;0.30;;
74383;SDS011;62824;52.994;-3.936;2024-02-16T02:57:15;0.30;;;0.22;;
74383;SDS011;62824;52.994;-3.936;2024-02-16T02:59:40;0.90;;;0.40;;
74383;SDS011;62824;52.994;-3.936;2024-02-16T03:02:06;0.90;;;0.50;;
74383;SDS011;62824;52.994;-3.936;2024-02-16T03:04:32;1.15;;;0.60;;
74383;SDS011;62824;52.994;-3.936;2024-02-16T03:06:58;0.65;;;0.60;;
74383;SDS011;62824;52.994;-3.936;2024-02-16T03:09:24;7.53;;;0.82;;
74383;SDS011;62824;52.994;-3.936;2024-02-16T03:11:50;11.40;;;1.45;;
74383;SDS011;62824;52.994;-3.936;2024-02-16T03:14:16;42.70;;;2.20;;
74383;SDS011;62824;52.994;-3.936;2024-02-16T03:16:42;77.20;;;5.85;;
74383;SDS011;62824;52.994;-3.936;2024-02-16T03:19:08;127.50;;;8.90;;
74383;SDS011;62824;52.994;-3.936;2024-02-16T03:21:34;151.35;;;10.38;;
74383;SDS011;62824;52.994;-3.936;2024-02-16T03:24:01;133.30;;;9.80;;
74383;SDS011;62824;52.994;-3.936;2024-02-16T03:26:27;124.78;;;7.10;;
74383;SDS011;62824;52.994;-3.936;2024-02-16T03:28:53;148.07;;;10.75;;
74383;SDS011;62824;52.994;-3.936;2024-02-16T03:31:21;193.32;;;12.25;;
74383;SDS011;62824;52.994;-3.936;2024-02-16T03:33:51;145.07;;;9.95;;
74383;SDS011;62824;52.994;-3.936;2024-02-16T03:36:18;237.85;;;17.10;;
74383;SDS011;62824;52.994;-3.936;2024-02-16T03:38:45;210.15;;;13.00;;
74383;SDS011;62824;52.994;-3.936;2024-02-16T03:41:14;256.67;;;18.65;;
74383;SDS011;62824;52.994;-3.936;2024-02-16T03:43:45;248.98;;;17.35;;
74383;SDS011;62824;52.994;-3.936;2024-02-16T03:46:11;153.68;;;10.95;;
74383;SDS011;62824;52.994;-3.936;2024-02-16T03:48:38;166.45;;;11.75;;
74383;SDS011;62824;52.994;-3.936;2024-02-16T03:51:04;106.93;;;7.88;;
74383;SDS011;62824;52.994;-3.936;2024-02-16T03:53:30;153.77;;;10.32;;
74383;SDS011;62824;52.994;-3.936;2024-02-16T03:55:57;166.35;;;11.38;;
74383;SDS011;62824;52.994;-3.936;2024-02-16T03:58:23;138.18;;;10.57;;
74383;SDS011;62824;52.994;-3.936;2024-02-16T04:00:50;214.82;;;14.43;;
74383;SDS011;62824;52.994;-3.936;2024-02-16T04:03:16;157.20;;;12.38;;
74383;SDS011;62824;52.994;-3.936;2024-02-16T04:05:42;164.48;;;10.57;;
74383;SDS011;62824;52.994;-3.936;2024-02-16T04:08:08;94.47;;;8.43;;
74383;SDS011;62824;52.994;-3.936;2024-02-16T04:10:34;146.60;;;9.85;;
74383;SDS011;62824;52.994;-3.936;2024-02-16T04:13:01;67.00;;;6.28;;
74383;SDS011;62824;52.994;-3.936;2024-02-16T04:15:27;123.05;;;8.32;;
74383;SDS011;62824;52.994;-3.936;2024-02-16T04:17:53;66.38;;;4.97;;
74383;SDS011;62824;52.994;-3.936;2024-02-16T04:20:19;98.60;;;5.65;;
74383;SDS011;62824;52.994;-3.936;2024-02-16T04:22:48;52.67;;;4.15;;
74383;SDS011;62824;52.994;-3.936;2024-02-16T04:25:13;26.45;;;3.50;;
74383;SDS011;62824;52.994;-3.936;2024-02-16T04:27:39;62.92;;;6.90;;
74383;SDS011;62824;52.994;-3.936;2024-02-16T04:30:05;42.83;;;3.97;;
74383;SDS011;62824;52.994;-3.936;2024-02-16T04:32:32;21.90;;;2.72;;
74383;SDS011;62824;52.994;-3.936;2024-02-16T04:34:58;7.82;;;2.55;;
74383;SDS011;62824;52.994;-3.936;2024-02-16T04:37:24;11.90;;;2.15;;
74383;SDS011;62824;52.994;-3.936;2024-02-16T04:39:51;30.10;;;3.47;;
74383;SDS011;62824;52.994;-3.936;2024-02-16T04:42:20;7.50;;;2.28;;
74383;SDS011;62824;52.994;-3.936;2024-02-16T04:44:46;28.05;;;3.20;;
74383;SDS011;62824;52.994;-3.936;2024-02-16T04:47:15;111.78;;;8.98;;
74383;SDS011;62824;52.994;-3.936;2024-02-16T04:49:43;170.85;;;12.73;;
74383;SDS011;62824;52.994;-3.936;2024-02-16T04:52:09;204.55;;;18.52;;
74383;SDS011;62824;52.994;-3.936;2024-02-16T04:54:38;262.35;;;18.55;;
74383;SDS011;62824;52.994;-3.936;2024-02-16T04:57:05;160.20;;;10.30;;
74383;SDS011;62824;52.994;-3.936;2024-02-16T04:59:32;96.30;;;6.82;;
74383;SDS011;62824;52.994;-3.936;2024-02-16T05:01:58;123.25;;;9.00;;
74383;SDS011;62824;52.994;-3.936;2024-02-16T05:04:24;225.05;;;17.52;;
74383;SDS011;62824;52.994;-3.936;2024-02-16T05:06:49;330.63;;;24.25;;
74383;SDS011;62824;52.994;-3.936;2024-02-16T05:09:17;169.43;;;15.90;;
74383;SDS011;62824;52.994;-3.936;2024-02-16T05:11:43;251.68;;;19.05;;
74383;SDS011;62824;52.994;-3.936;2024-02-16T05:14:11;155.50;;;11.32;;
74383;SDS011;62824;52.994;-3.936;2024-02-16T05:16:37;195.82;;;17.50;;
74383;SDS011;62824;52.994;-3.936;2024-02-16T05:19:07;179.15;;;14.38;;
74383;SDS011;62824;52.994;-3.936;2024-02-16T05:21:33;219.65;;;16.20;;
74383;SDS011;62824;52.994;-3.936;2024-02-16T05:24:00;218.43;;;14.60;;
74383;SDS011;62824;52.994;-3.936;2024-02-16T05:26:26;159.73;;;12.00;;
74383;SDS011;62824;52.994;-3.936;2024-02-16T05:28:52;167.02;;;14.57;;
74383;SDS011;62824;52.994;-3.936;2024-02-16T05:31:18;138.20;;;12.02;;
74383;SDS011;62824;52.994;-3.936;2024-02-16T05:33:44;55.97;;;7.45;;
74383;SDS011;62824;52.994;-3.936;2024-02-16T05:36:12;57.22;;;5.57;;
74383;SDS011;62824;52.994;-3.936;2024-02-16T05:38:41;4.38;;;2.25;;
74383;SDS011;62824;52.994;-3.936;2024-02-16T05:41:08;7.25;;;2.28;;
74383;SDS011;62824;52.994;-3.936;2024-02-16T05:43:35;6.53;;;2.65;;
74383;SDS011;62824;52.994;-3.936;2024-02-16T05:46:03;7.25;;;2.67;;
74383;SDS011;62824;52.994;-3.936;2024-02-16T05:48:32;12.65;;;3.35;;
74383;SDS011;62824;52.994;-3.936;2024-02-16T05:51:02;50.80;;;6.88;;
74383;SDS011;62824;52.994;-3.936;2024-02-16T05:53:30;33.90;;;4.80;;
74383;SDS011;62824;52.994;-3.936;2024-02-16T05:55:57;35.75;;;4.97;;
74383;SDS011;62824;52.994;-3.936;2024-02-16T05:58:23;14.32;;;4.40;;
74383;SDS011;62824;52.994;-3.936;2024-02-16T06:00:50;13.60;;;3.25;;
74383;SDS011;62824;52.994;-3.936;2024-02-16T06:03:16;11.77;;;3.25;;
74383;SDS011;62824;52.994;-3.936;2024-02-16T06:05:42;77.68;;;7.60;;
74383;SDS011;62824;52.994;-3.936;2024-02-16T06:08:11;53.50;;;7.40;;
74383;SDS011;62824;52.994;-3.936;2024-02-16T06:10:38;43.78;;;6.25;;
74383;SDS011;62824;52.994;-3.936;2024-02-16T06:13:04;58.03;;;7.20;;
74383;SDS011;62824;52.994;-3.936;2024-02-16T06:15:31;94.13;;;10.60;;
74383;SDS011;62824;52.994;-3.936;2024-02-16T06:17:59;100.22;;;12.65;;
74383;SDS011;62824;52.994;-3.936;2024-02-16T06:20:27;37.95;;;6.10;;
74383;SDS011;62824;52.994;-3.936;2024-02-16T06:22:54;51.63;;;7.47;;
74383;SDS011;62824;52.994;-3.936;2024-02-16T06:25:20;128.25;;;14.07;;
74383;SDS011;62824;52.994;-3.936;2024-02-16T06:27:46;129.77;;;14.23;;
74383;SDS011;62824;52.994;-3.936;2024-02-16T06:30:12;127.45;;;14.18;;
74383;SDS011;62824;52.994;-3.936;2024-02-16T06:32:41;262.75;;;25.65;;
74383;SDS011;62824;52.994;-3.936;2024-02-16T06:35:07;62.78;;;8.85;;
74383;SDS011;62824;52.994;-3.936;2024-02-16T06:37:34;53.25;;;8.45;;
74383;SDS011;62824;52.994;-3.936;2024-02-16T06:40:00;75.28;;;10.63;;
74383;SDS011;62824;52.994;-3.936;2024-02-16T06:42:25;106.03;;;13.52;;
74383;SDS011;62824;52.994;-3.936;2024-02-16T06:44:51;57.47;;;7.95;;
74383;SDS011;62824;52.994;-3.936;2024-02-16T06:47:17;52.30;;;7.63;;
74383;SDS011;62824;52.994;-3.936;2024-02-16T06:49:44;15.40;;;5.30;;
74383;SDS011;62824;52.994;-3.936;2024-02-16T06:52:11;16.50;;;5.53;;
74383;SDS011;62824;52.994;-3.936;2024-02-16T06:54:37;44.53;;;7.82;;
74383;SDS011;62824;52.994;-3.936;2024-02-16T06:57:03;48.40;;;7.32;;
74383;SDS011;62824;52.994;-3.936;2024-02-16T06:59:29;50.85;;;8.32;;
74383;SDS011;62824;52.994;-3.936;2024-02-16T07:01:54;83.13;;;10.63;;
74383;SDS011;62824;52.994;-3.936;2024-02-16T07:04:20;9.95;;;4.55;;
74383;SDS011;62824;52.994;-3.936;2024-02-16T07:06:46;10.07;;;3.83;;
74383;SDS011;62824;52.994;-3.936;2024-02-16T07:09:12;8.77;;;3.40;;
74383;SDS011;62824;52.994;-3.936;2024-02-16T07:11:41;32.47;;;6.05;;
74383;SDS011;62824;52.994;-3.936;2024-02-16T07:14:10;28.95;;;4.72;;
74383;SDS011;62824;52.994;-3.936;2024-02-16T07:16:37;10.48;;;3.60;;
74383;SDS011;62824;52.994;-3.936;2024-02-16T07:19:04;35.92;;;5.40;;
74383;SDS011;62824;52.994;-3.936;2024-02-16T07:21:30;31.92;;;5.28;;
74383;SDS011;62824;52.994;-3.936;2024-02-16T07:23:56;38.60;;;5.45;;
74383;SDS011;62824;52.994;-3.936;2024-02-16T07:26:22;34.25;;;5.38;;
74383;SDS011;62824;52.994;-3.936;2024-02-16T07:28:48;18.85;;;4.03;;
74383;SDS011;62824;52.994;-3.936;2024-02-16T07:31:14;5.18;;;2.85;;
74383;SDS011;62824;52.994;-3.936;2024-02-16T07:36:57;5.70;;;2.45;;
74383;SDS011;62824;52.994;-3.936;2024-02-16T07:39:23;4.63;;;2.30;;
74383;SDS011;62824;52.994;-3.936;2024-02-16T07:41:50;8.05;;;3.00;;
74383;SDS011;62824;52.994;-3.936;2024-02-16T07:44:16;7.90;;;2.38;;
74383;SDS011;62824;52.994;-3.936;2024-02-16T07:46:42;5.35;;;1.90;;
74383;SDS011;62824;52.994;-3.936;2024-02-16T07:49:11;4.82;;;1.80;;
74383;SDS011;62824;52.994;-3.936;2024-02-16T07:51:37;7.20;;;2.55;;
74383;SDS011;62824;52.994;-3.936;2024-02-16T07:54:02;2.72;;;1.55;;
74383;SDS011;62824;52.994;-3.936;2024-02-16T07:56:29;3.30;;;1.30;;
74383;SDS011;62824;52.994;-3.936;2024-02-16T07:58:56;4.88;;;1.35;;
74383;SDS011;62824;52.994;-3.936;2024-02-16T08:01:21;3.85;;;1.45;;
74383;SDS011;62824;52.994;-3.936;2024-02-16T08:03:47;2.35;;;1.30;;
74383;SDS011;62824;52.994;-3.936;2024-02-16T08:06:13;2.67;;;1.52;;
74383;SDS011;62824;52.994;-3.936;2024-02-16T08:08:39;3.70;;;1.10;;
74383;SDS011;62824;52.994;-3.936;2024-02-16T08:11:05;4.05;;;1.50;;
74383;SDS011;62824;52.994;-3.936;2024-02-16T08:13:31;3.03;;;1.10;;
74383;SDS011;62824;52.994;-3.936;2024-02-16T08:15:57;2.22;;;1.17;;
74383;SDS011;62824;52.994;-3.936;2024-02-16T08:18:22;3.03;;;1.42;;
74383;SDS011;62824;52.994;-3.936;2024-02-16T08:20:48;4.57;;;1.67;;
74383;SDS011;62824;52.994;-3.936;2024-02-16T08:23:14;4.90;;;1.77;;
74383;SDS011;62824;52.994;-3.936;2024-02-16T08:25:40;5.95;;;1.55;;
74383;SDS011;62824;52.994;-3.936;2024-02-16T08:28:06;7.28;;;1.70;;
74383;SDS011;62824;52.994;-3.936;2024-02-16T08:30:32;3.80;;;1.38;;
74383;SDS011;62824;52.994;-3.936;2024-02-16T08:32:58;2.63;;;1.27;;
74383;SDS011;62824;52.994;-3.936;2024-02-16T08:35:25;2.78;;;1.17;;
74383;SDS011;62824;52.994;-3.936;2024-02-16T08:37:51;5.00;;;1.30;;
74383;SDS011;62824;52.994;-3.936;2024-02-16T08:40:16;4.90;;;1.40;;
74383;SDS011;62824;52.994;-3.936;2024-02-16T08:42:43;2.70;;;1.30;;
74383;SDS011;62824;52.994;-3.936;2024-02-16T08:45:09;4.35;;;1.50;;
74383;SDS011;62824;52.994;-3.936;2024-02-16T08:47:35;3.30;;;1.33;;
74383;SDS011;62824;52.994;-3.936;2024-02-16T08:50:01;2.90;;;1.20;;
74383;SDS011;62824;52.994;-3.936;2024-02-16T08:52:27;2.80;;;1.20;;
74383;SDS011;62824;52.994;-3.936;2024-02-16T08:54:53;3.05;;;1.17;;
74383;SDS011;62824;52.994;-3.936;2024-02-16T08:57:19;3.17;;;1.20;;
74383;SDS011;62824;52.994;-3.936;2024-02-16T08:59:45;3.97;;;1.10;;
74383;SDS011;62824;52.994;-3.936;2024-02-16T09:02:11;7.72;;;1.92;;
74383;SDS011;62824;52.994;-3.936;2024-02-16T09:04:37;4.43;;;1.45;;
74383;SDS011;62824;52.994;-3.936;2024-02-16T09:07:02;4.10;;;1.42;;
74383;SDS011;62824;52.994;-3.936;2024-02-16T09:09:28;6.00;;;1.73;;
74383;SDS011;62824;52.994;-3.936;2024-02-16T09:11:54;3.00;;;1.02;;
74383;SDS011;62824;52.994;-3.936;2024-02-16T09:14:20;2.05;;;1.13;;
74383;SDS011;62824;52.994;-3.936;2024-02-16T09:16:48;7.05;;;1.40;;
74383;SDS011;62824;52.994;-3.936;2024-02-16T09:19:16;3.58;;;1.25;;
74383;SDS011;62824;52.994;-3.936;2024-02-16T09:21:43;2.70;;;1.33;;
74383;SDS011;62824;52.994;-3.936;2024-02-16T09:24:08;6.45;;;1.73;;
74383;SDS011;62824;52.994;-3.936;2024-02-16T09:26:36;3.55;;;1.30;;
74383;SDS011;62824;52.994;-3.936;2024-02-16T09:29:02;2.85;;;1.00;;
74383;SDS011;62824;52.994;-3.936;2024-02-16T09:31:28;3.67;;;1.00;;
74383;SDS011;62824;52.994;-3.936;2024-02-16T09:33:53;3.90;;;1.10;;
74383;SDS011;62824;52.994;-3.936;2024-02-16T09:36:19;2.67;;;0.93;;
74383;SDS011;62824;52.994;-3.936;2024-02-16T09:38:45;2.88;;;1.00;;
74383;SDS011;62824;52.994;-3.936;2024-02-16T09:41:12;3.50;;;1.02;;
74383;SDS011;62824;52.994;-3.936;2024-02-16T09:43:41;4.13;;;1.33;;
74383;SDS011;62824;52.994;-3.936;2024-02-16T09:46:09;3.22;;;0.98;;
74383;SDS011;62824;52.994;-3.936;2024-02-16T09:48:35;3.67;;;0.98;;
74383;SDS011;62824;52.994;-3.936;2024-02-16T09:51:04;3.50;;;0.75;;
74383;SDS011;62824;52.994;-3.936;2024-02-16T09:53:30;4.22;;;0.82;;
74383;SDS011;62824;52.994;-3.936;2024-02-16T09:55:56;2.60;;;0.70;;
74383;SDS011;62824;52.994;-3.936;2024-02-16T09:58:22;2.67;;;0.50;;
74383;SDS011;62824;52.994;-3.936;2024-02-16T10:00:51;2.92;;;0.60;;
74383;SDS011;62824;52.994;-3.936;2024-02-16T10:03:25;2.58;;;0.75;;
74383;SDS011;62824;52.994;-3.936;2024-02-16T10:06:07;2.63;;;0.60;;
74383;SDS011;62824;52.994;-3.936;2024-02-16T10:08:34;3.50;;;0.80;;
74383;SDS011;62824;52.994;-3.936;2024-02-16T10:11:12;3.17;;;0.75;;
74383;SDS011;62824;52.994;-3.936;2024-02-16T10:13:40;3.20;;;0.73;;
74383;SDS011;62824;52.994;-3.936;2024-02-16T10:16:06;3.83;;;0.80;;
74383;SDS011;62824;52.994;-3.936;2024-02-16T10:18:37;5.38;;;2.05;;
74383;SDS011;62824;52.994;-3.936;2024-02-16T10:21:03;5.60;;;2.50;;
74383;SDS011;62824;52.994;-3.936;2024-02-16T10:23:29;3.28;;;1.20;;
74383;SDS011;62824;52.994;-3.936;2024-02-16T10:25:55;6.90;;;1.90;;
74383;SDS011;62824;52.994;-3.936;2024-02-16T10:28:22;5.35;;;1.40;;
74383;SDS011;62824;52.994;-3.936;2024-02-16T10:30:54;4.57;;;1.60;;
74383;SDS011;62824;52.994;-3.936;2024-02-16T10:33:27;5.00;;;1.40;;
74383;SDS011;62824;52.994;-3.936;2024-02-16T10:35:55;6.78;;;1.50;;
74383;SDS011;62824;52.994;-3.936;2024-02-16T10:38:22;6.30;;;1.65;;
74383;SDS011;62824;52.994;-3.936;2024-02-16T10:40:49;9.32;;;1.40;;
74383;SDS011;62824;52.994;-3.936;2024-02-16T10:43:16;4.78;;;1.40;;
74383;SDS011;62824;52.994;-3.936;2024-02-16T10:45:43;5.30;;;1.48;;
74383;SDS011;62824;52.994;-3.936;2024-02-16T10:48:12;4.32;;;1.10;;
74383;SDS011;62824;52.994;-3.936;2024-02-16T10:50:40;4.55;;;1.45;;
74383;SDS011;62824;52.994;-3.936;2024-02-16T10:56:06;8.52;;;2.00;;
74383;SDS011;62824;52.994;-3.936;2024-02-16T10:58:32;5.10;;;1.13;;
74383;SDS011;62824;52.994;-3.936;2024-02-16T11:01:07;4.93;;;1.73;;
74383;SDS011;62824;52.994;-3.936;2024-02-16T11:03:40;7.22;;;1.40;;
74383;SDS011;62824;52.994;-3.936;2024-02-16T11:06:15;4.72;;;1.33;;
74383;SDS011;62824;52.994;-3.936;2024-02-16T11:08:41;8.65;;;2.30;;
74383;SDS011;62824;52.994;-3.936;2024-02-16T11:11:07;7.90;;;1.80;;
74383;SDS011;62824;52.994;-3.936;2024-02-16T11:13:36;8.10;;;2.70;;
74383;SDS011;62824;52.994;-3.936;2024-02-16T11:16:06;6.90;;;1.65;;
74383;SDS011;62824;52.994;-3.936;2024-02-16T11:18:40;10.63;;;2.40;;
74383;SDS011;62824;52.994;-3.936;2024-02-16T11:21:15;10.80;;;1.90;;
74383;SDS011;62824;52.994;-3.936;2024-02-16T11:23:41;8.40;;;2.20;;
74383;SDS011;62824;52.994;-3.936;2024-02-16T11:26:12;8.25;;;1.60;;
74383;SDS011;62824;52.994;-3.936;2024-02-16T11:28:40;9.20;;;1.75;;
74383;SDS011;62824;52.994;-3.936;2024-02-16T11:31:06;9.82;;;2.00;;
74383;SDS011;62824;52.994;-3.936;2024-02-16T11:33:32;9.20;;;1.67;;
74383;SDS011;62824;52.994;-3.936;2024-02-16T11:36:00;3.47;;;1.38;;
74383;SDS011;62824;52.994;-3.936;2024-02-16T11:38:30;6.25;;;1.65;;
74383;SDS011;62824;52.994;-3.936;2024-02-16T11:41:01;4.53;;;1.10;;
74383;SDS011;62824;52.994;-3.936;2024-02-16T11:43:28;5.70;;;1.40;;
74383;SDS011;62824;52.994;-3.936;2024-02-16T11:45:55;3.55;;;1.15;;
74383;SDS011;62824;52.994;-3.936;2024-02-16T11:50:48;5.47;;;1.20;;
74383;SDS011;62824;52.994;-3.936;2024-02-16T11:53:18;2.05;;;1.13;;
74383;SDS011;62824;52.994;-3.936;2024-02-16T11:55:48;5.07;;;1.52;;
74383;SDS011;62824;52.994;-3.936;2024-02-16T11:58:17;4.25;;;1.23;;
74383;SDS011;62824;52.994;-3.936;2024-02-16T12:03:22;4.28;;;1.30;;
74383;SDS011;62824;52.994;-3.936;2024-02-16T12:05:53;5.90;;;1.92;;
74383;SDS011;62824;52.994;-3.936;2024-02-16T12:08:23;6.30;;;1.58;;
74383;SDS011;62824;52.994;-3.936;2024-02-16T12:10:57;8.30;;;1.50;;
74383;SDS011;62824;52.994;-3.936;2024-02-16T12:13:22;8.35;;;2.08;;
74383;SDS011;62824;52.994;-3.936;2024-02-16T12:15:48;7.63;;;2.08;;
74383;SDS011;62824;52.994;-3.936;2024-02-16T12:18:23;9.85;;;2.10;;
74383;SDS011;62824;52.994;-3.936;2024-02-16T12:21:03;6.72;;;1.60;;
74383;SDS011;62824;52.994;-3.936;2024-02-16T12:23:35;11.32;;;2.30;;
74383;SDS011;62824;52.994;-3.936;2024-02-16T12:26:01;7.40;;;1.90;;
74383;SDS011;62824;52.994;-3.936;2024-02-16T12:28:29;8.93;;;2.13;;
74383;SDS011;62824;52.994;-3.936;2024-02-16T12:30:58;6.38;;;2.33;;
74383;SDS011;62824;52.994;-3.936;2024-02-16T12:33:24;9.40;;;1.77;;
74383;SDS011;62824;52.994;-3.936;2024-02-16T12:35:50;6.68;;;1.77;;
74383;SDS011;62824;52.994;-3.936;2024-02-16T12:38:17;7.55;;;1.70;;
74383;SDS011;62824;52.994;-3.936;2024-02-16T12:40:47;8.43;;;2.17;;
74383;SDS011;62824;52.994;-3.936;2024-02-16T12:43:13;7.38;;;2.00;;
74383;SDS011;62824;52.994;-3.936;2024-02-16T12:45:39;8.68;;;2.00;;
74383;SDS011;62824;52.994;-3.936;2024-02-16T12:48:06;6.50;;;2.58;;
74383;SDS011;62824;52.994;-3.936;2024-02-16T12:50:32;6.72;;;1.50;;
74383;SDS011;62824;52.994;-3.936;2024-02-16T12:52:58;9.10;;;2.38;;
74383;SDS011;62824;52.994;-3.936;2024-02-16T12:55:24;11.63;;;2.28;;
74383;SDS011;62824;52.994;-3.936;2024-02-16T12:57:50;11.85;;;1.85;;
74383;SDS011;62824;52.994;-3.936;2024-02-16T13:00:16;6.50;;;1.80;;
74383;SDS011;62824;52.994;-3.936;2024-02-16T13:02:43;5.13;;;1.48;;
74383;SDS011;62824;52.994;-3.936;2024-02-16T13:05:09;11.52;;;2.08;;
74383;SDS011;62824;52.994;-3.936;2024-02-16T13:07:36;11.18;;;2.25;;
74383;SDS011;62824;52.994;-3.936;2024-02-16T13:10:05;8.90;;;2.50;;
74383;SDS011;62824;52.994;-3.936;2024-02-16T13:12:32;10.35;;;2.17;;
74383;SDS011;62824;52.994;-3.936;2024-02-16T13:14:58;7.47;;;1.80;;
74383;SDS011;62824;52.994;-3.936;2024-02-16T13:17:24;10.77;;;1.88;;
74383;SDS011;62824;52.994;-3.936;2024-02-16T13:19:51;11.48;;;1.95;;
74383;SDS011;62824;52.994;-3.936;2024-02-16T13:22:18;5.75;;;2.17;;
74383;SDS011;62824;52.994;-3.936;2024-02-16T13:24:45;8.35;;;2.00;;
74383;SDS011;62824;52.994;-3.936;2024-02-16T13:27:10;16.08;;;4.70;;
74383;SDS011;62824;52.994;-3.936;2024-02-16T13:29:37;8.25;;;1.70;;
74383;SDS011;62824;52.994;-3.936;2024-02-16T13:32:03;6.05;;;1.95;;
74383;SDS011;62824;52.994;-3.936;2024-02-16T13:34:29;10.88;;;2.17;;
74383;SDS011;62824;52.994;-3.936;2024-02-16T13:36:55;11.82;;;1.90;;
74383;SDS011;62824;52.994;-3.936;2024-02-16T13:39:21;7.60;;;1.60;;
74383;SDS011;62824;52.994;-3.936;2024-02-16T13:41:48;9.88;;;1.90;;
74383;SDS011;62824;52.994;-3.936;2024-02-16T13:44:16;5.85;;;1.85;;
74383;SDS011;62824;52.994;-3.936;2024-02-16T13:46:44;6.32;;;1.73;;
74383;SDS011;62824;52.994;-3.936;2024-02-16T13:49:12;9.50;;;2.03;;
74383;SDS011;62824;52.994;-3.936;2024-02-16T13:51:39;6.35;;;1.70;;
74383;SDS011;62824;52.994;-3.936;2024-02-16T13:54:06;2.95;;;1.60;;
74383;SDS011;62824;52.994;-3.936;2024-02-16T13:56:31;5.25;;;1.50;;
74383;SDS011;62824;52.994;-3.936;2024-02-16T13:58:57;9.20;;;1.83;;
74383;SDS011;62824;52.994;-3.936;2024-02-16T14:01:23;7.45;;;1.75;;
74383;SDS011;62824;52.994;-3.936;2024-02-16T14:03:49;9.55;;;1.90;;
74383;SDS011;62824;52.994;-3.936;2024-02-16T14:06:16;8.88;;;1.80;;
74383;SDS011;62824;52.994;-3.936;2024-02-16T14:08:42;12.23;;;2.17;;
74383;SDS011;62824;52.994;-3.936;2024-02-16T14:11:07;13.70;;;2.28;;
74383;SDS011;62824;52.994;-3.936;2024-02-16T14:13:34;6.07;;;1.88;;
74383;SDS011;62824;52.994;-3.936;2024-02-16T14:16:00;7.07;;;2.08;;
74383;SDS011;62824;52.994;-3.936;2024-02-16T14:18:26;10.15;;;2.13;;
74383;SDS011;62824;52.994;-3.936;2024-02-16T14:20:52;8.30;;;2.90;;
74383;SDS011;62824;52.994;-3.936;2024-02-16T14:23:19;3.03;;;1.50;;
74383;SDS011;62824;52.994;-3.936;2024-02-16T14:25:45;5.03;;;1.48;;
74383;SDS011;62824;52.994;-3.936;2024-02-16T14:28:12;7.65;;;1.73;;
74383;SDS011;62824;52.994;-3.936;2024-02-16T14:30:38;7.95;;;2.00;;
74383;SDS011;62824;52.994;-3.936;2024-02-16T14:33:05;9.13;;;2.15;;
74383;SDS011;62824;52.994;-3.936;2024-02-16T14:35:30;4.57;;;1.65;;